createdAt,value
2019-05-26T00:02:23.595Z,21.67
2019-05-26T00:04:53.964Z,21.80
2019-05-26T00:07:30.485Z,25.23
2019-05-26T00:09:55.547Z,22.10
2019-05-26T00:12:25.898Z,23.77
2019-05-26T00:14:56.256Z,16.13
2019-05-26T00:17:26.576Z,20.72
2019-05-26T00:19:56.928Z,20.13
2019-05-26T00:22:27.270Z,21.53
2019-05-26T00:24:57.627Z,20.77
2019-05-26T00:27:27.989Z,18.00
2019-05-26T00:29:58.331Z,16.90
2019-05-26T00:32:28.689Z,18.00
2019-05-26T00:34:59.035Z,14.50
2019-05-26T00:37:28.727Z,15.30
2019-05-26T00:39:58.968Z,12.93
2019-05-26T00:42:28.634Z,16.27
2019-05-26T00:44:58.890Z,12.67
2019-05-26T00:47:29.228Z,14.60
2019-05-26T00:49:59.578Z,20.00
2019-05-26T00:52:29.257Z,17.40
2019-05-26T00:54:59.522Z,18.03
2019-05-26T00:57:30.131Z,13.25
2019-05-26T00:59:59.837Z,16.53
2019-05-26T01:02:29.479Z,17.43
2019-05-26T01:04:59.041Z,14.10
2019-05-26T01:07:29.275Z,17.13
2019-05-26T01:09:58.971Z,16.10
2019-05-26T01:12:28.591Z,13.17
2019-05-26T01:14:58.868Z,16.03
2019-05-26T01:17:29.210Z,13.75
2019-05-26T01:19:59.589Z,14.50
2019-05-26T01:22:29.299Z,23.47
2019-05-26T01:24:59.535Z,18.43
2019-05-26T01:27:30.053Z,15.63
2019-05-26T01:29:59.724Z,19.37
2019-05-26T01:32:29.306Z,18.13
2019-05-26T01:34:59.641Z,18.57
2019-05-26T01:37:29.993Z,19.80
2019-05-26T01:39:59.729Z,19.37
2019-05-26T01:42:29.334Z,19.57
2019-05-26T01:44:59.607Z,19.97
2019-05-26T01:47:29.946Z,21.00
2019-05-26T01:49:59.630Z,18.83
2019-05-26T01:52:29.864Z,21.27
2019-05-26T01:54:59.573Z,20.50
2019-05-26T01:57:29.150Z,19.20
2019-05-26T01:59:59.398Z,20.40
2019-05-26T02:02:29.045Z,18.27
2019-05-26T02:04:59.306Z,20.87
2019-05-26T02:07:29.635Z,19.00
2019-05-26T02:10:00.016Z,20.73
2019-05-26T02:12:29.703Z,19.87
2019-05-26T02:14:59.957Z,26.17
2019-05-26T02:17:30.298Z,17.77
2019-05-26T02:20:00.005Z,17.90
2019-05-26T02:22:29.594Z,16.10
2019-05-26T02:24:59.841Z,11.60
2019-05-26T02:27:30.144Z,16.03
2019-05-26T02:29:59.849Z,10.77
2019-05-26T02:32:29.523Z,16.90
2019-05-26T02:34:59.791Z,20.20
2019-05-26T02:37:30.131Z,10.97
2019-05-26T02:40:00.436Z,13.43
2019-05-26T02:42:30.960Z,12.03
2019-05-26T02:45:00.634Z,11.83
2019-05-26T02:47:30.230Z,11.63
2019-05-26T02:50:00.466Z,9.70
2019-05-26T02:52:30.822Z,10.27
2019-05-26T02:55:00.501Z,9.27
2019-05-26T02:57:30.731Z,9.77
2019-05-26T03:00:00.407Z,13.07
2019-05-26T03:02:30.010Z,10.43
2019-05-26T03:05:00.264Z,10.97
2019-05-26T03:07:31.376Z,12.80
2019-05-26T03:10:01.084Z,10.90
2019-05-26T03:12:33.715Z,10.20
2019-05-26T03:15:04.591Z,13.57
2019-05-26T03:17:35.571Z,13.07
2019-05-26T03:20:06.519Z,11.50
2019-05-26T03:22:37.207Z,15.07
2019-05-26T03:25:07.623Z,12.03
2019-05-26T03:27:37.288Z,14.13
2019-05-26T03:30:08.247Z,15.80
2019-05-26T03:32:38.713Z,18.20
2019-05-26T03:35:09.555Z,15.53
2019-05-26T03:37:40.055Z,14.33
2019-05-26T03:40:10.794Z,11.63
2019-05-26T03:42:42.886Z,12.77
2019-05-26T03:45:14.469Z,18.20
2019-05-26T03:47:44.724Z,15.53
2019-05-26T03:50:15.142Z,15.77
2019-05-26T03:52:45.482Z,18.20
2019-05-26T03:55:16.011Z,19.73
2019-05-26T03:57:46.344Z,21.90
2019-05-26T04:00:16.902Z,15.17
2019-05-26T04:02:47.201Z,15.53
2019-05-26T04:05:17.533Z,16.77
2019-05-26T04:07:47.863Z,17.70
2019-05-26T04:10:18.215Z,14.73
2019-05-26T04:12:48.526Z,15.43
2019-05-26T04:15:18.954Z,18.93
2019-05-26T04:17:49.279Z,21.97
2019-05-26T04:20:20.398Z,16.10
2019-05-26T04:22:50.648Z,19.77
2019-05-26T04:25:21.048Z,19.07
2019-05-26T04:27:51.355Z,16.67
2019-05-26T04:30:21.689Z,16.23
2019-05-26T04:32:51.372Z,18.27
2019-05-26T04:35:21.631Z,21.33
2019-05-26T04:37:51.311Z,15.60
2019-05-26T04:40:26.934Z,15.73
2019-05-26T04:42:52.836Z,12.60
2019-05-26T04:45:22.435Z,15.87
2019-05-26T04:47:52.031Z,15.33
2019-05-26T04:50:22.279Z,14.30
2019-05-26T04:53:05.251Z,13.43
2019-05-26T04:55:23.841Z,10.87
2019-05-26T04:57:54.189Z,16.50
2019-05-26T05:00:23.897Z,16.10
2019-05-26T05:02:53.479Z,13.20
2019-05-26T05:05:23.743Z,13.63
2019-05-26T05:07:54.040Z,9.73
2019-05-26T05:10:24.389Z,11.53
2019-05-26T05:12:54.092Z,14.03
2019-05-26T05:15:24.534Z,14.13
2019-05-26T05:17:54.181Z,10.77
2019-05-26T05:20:23.742Z,12.37
2019-05-26T05:22:53.350Z,13.90
2019-05-26T05:25:23.570Z,10.00
2019-05-26T05:27:53.602Z,8.43
2019-05-26T05:30:23.492Z,10.03
2019-05-26T05:32:54.182Z,10.33
2019-05-26T05:35:23.954Z,9.97
2019-05-26T05:37:54.512Z,8.33
2019-05-26T05:40:24.841Z,11.80
2019-05-26T05:42:55.272Z,13.00
2019-05-26T05:45:25.599Z,13.73
2019-05-26T05:47:56.354Z,10.13
2019-05-26T05:50:26.789Z,10.25
2019-05-26T05:52:56.785Z,14.33
2019-05-26T05:55:27.063Z,13.20
2019-05-26T05:57:57.523Z,12.23
2019-05-26T06:00:27.946Z,13.53
2019-05-26T06:02:58.366Z,12.87
2019-05-26T06:05:28.057Z,11.30
2019-05-26T06:07:57.850Z,14.87
2019-05-26T06:10:28.110Z,9.17
2019-05-26T06:12:58.716Z,10.83
2019-05-26T06:15:29.068Z,13.73
2019-05-26T06:17:59.637Z,10.82
2019-05-26T06:20:29.989Z,10.37
2019-05-26T06:23:00.654Z,12.83
2019-05-26T06:25:31.097Z,11.93
2019-05-26T06:28:01.768Z,14.23
2019-05-26T06:30:32.118Z,12.17
2019-05-26T06:33:02.135Z,13.17
2019-05-26T06:35:32.972Z,13.50
2019-05-26T06:38:02.961Z,11.13
2019-05-26T06:40:33.266Z,13.47
2019-05-26T06:43:02.992Z,13.17
2019-05-26T06:45:33.382Z,13.70
2019-05-26T06:48:03.161Z,13.40
2019-05-26T06:50:33.472Z,13.50
2019-05-26T06:53:03.211Z,14.33
2019-05-26T06:55:32.881Z,12.97
2019-05-26T06:58:02.558Z,13.40
2019-05-26T07:00:32.829Z,12.57
2019-05-26T07:03:02.647Z,14.60
2019-05-26T07:05:33.005Z,17.47
2019-05-26T07:08:03.336Z,12.93
2019-05-26T07:10:33.679Z,13.53
2019-05-26T07:13:03.437Z,14.67
2019-05-26T07:15:33.715Z,17.50
2019-05-26T07:18:03.447Z,15.43
2019-05-26T07:20:33.141Z,14.33
2019-05-26T07:23:04.134Z,14.43
2019-05-26T07:25:35.147Z,11.03
2019-05-26T07:28:05.783Z,14.90
2019-05-26T07:30:36.161Z,12.27
2019-05-26T07:33:05.964Z,12.53
2019-05-26T07:35:36.246Z,13.00
2019-05-26T07:38:06.729Z,13.17
2019-05-26T07:40:37.105Z,13.87
2019-05-26T07:43:07.589Z,12.23
2019-05-26T07:45:37.952Z,14.93
2019-05-26T07:48:07.713Z,12.20
2019-05-26T07:50:38.096Z,10.40
2019-05-26T07:53:07.887Z,9.23
2019-05-26T07:55:38.212Z,10.33
2019-05-26T07:58:07.949Z,8.40
2019-05-26T08:00:38.198Z,8.20
2019-05-26T08:03:08.464Z,9.33
2019-05-26T08:05:38.844Z,7.37
2019-05-26T08:08:13.365Z,9.40
2019-05-26T08:10:40.501Z,9.03
2019-05-26T08:13:10.235Z,6.47
2019-05-26T08:15:40.584Z,9.93
2019-05-26T08:18:10.309Z,7.33
2019-05-26T08:20:42.673Z,8.37
2019-05-26T08:23:13.033Z,7.60
2019-05-26T08:25:43.460Z,6.87
2019-05-26T08:28:13.834Z,6.00
2019-05-26T08:30:44.138Z,5.77
2019-05-26T08:33:14.484Z,4.47
2019-05-26T08:35:44.807Z,8.97
2019-05-26T08:38:15.185Z,6.27
2019-05-26T08:40:45.532Z,7.60
2019-05-26T08:43:15.239Z,5.63
2019-05-26T08:45:45.479Z,8.53
2019-05-26T08:48:15.867Z,6.03
2019-05-26T08:50:46.237Z,6.57
2019-05-26T08:53:16.784Z,6.03
2019-05-26T08:55:46.477Z,6.03
2019-05-26T08:58:16.739Z,7.33
2019-05-26T09:00:46.417Z,8.30
2019-05-26T09:03:16.023Z,9.23
2019-05-26T09:05:46.271Z,7.20
2019-05-26T09:08:16.655Z,5.40
2019-05-26T09:10:46.335Z,3.73
2019-05-26T09:13:16.580Z,7.47
2019-05-26T09:15:46.305Z,5.07
2019-05-26T09:18:16.577Z,5.23
2019-05-26T09:20:46.921Z,5.27
2019-05-26T09:23:17.297Z,3.80
2019-05-26T09:25:46.988Z,3.77
2019-05-26T09:28:16.595Z,4.30
2019-05-26T09:30:46.176Z,6.43
2019-05-26T09:33:15.817Z,4.90
2019-05-26T09:35:46.042Z,7.30
2019-05-26T09:38:15.759Z,3.63
2019-05-26T09:40:45.392Z,3.73
2019-05-26T09:43:16.738Z,5.30
2019-05-26T09:45:46.524Z,6.37
2019-05-26T09:48:16.180Z,6.03
2019-05-26T09:50:46.449Z,4.73
2019-05-26T09:53:16.200Z,5.93
2019-05-26T09:55:46.478Z,9.33
2019-05-26T09:58:16.526Z,3.63
2019-05-26T10:00:47.295Z,4.90
2019-05-26T10:03:17.957Z,5.57
2019-05-26T10:05:47.668Z,6.07
2019-05-26T10:08:18.165Z,4.77
2019-05-26T10:10:47.904Z,5.03
2019-05-26T10:13:30.914Z,5.77
2019-05-26T10:15:49.774Z,5.93
2019-05-26T10:18:20.388Z,7.87
2019-05-26T10:20:50.024Z,7.03
2019-05-26T10:23:20.367Z,7.00
2019-05-26T10:25:49.980Z,7.00
2019-05-26T10:28:22.596Z,8.90
2019-05-26T10:30:52.956Z,6.27
2019-05-26T10:33:22.649Z,6.73
2019-05-26T10:35:52.941Z,5.63
2019-05-26T10:38:22.622Z,5.13
2019-05-26T10:40:52.883Z,6.57
2019-05-26T10:43:22.779Z,8.00
2019-05-26T10:45:53.016Z,8.17
2019-05-26T10:48:22.851Z,8.23
2019-05-26T10:50:53.166Z,6.30
2019-05-26T10:53:23.104Z,7.23
2019-05-26T10:55:53.459Z,7.70
2019-05-26T10:58:23.255Z,5.90
2019-05-26T11:00:53.589Z,11.30
2019-05-26T11:03:23.312Z,7.53
2019-05-26T11:05:53.002Z,8.53
2019-05-26T11:08:22.785Z,8.97
2019-05-26T11:10:53.085Z,7.67
2019-05-26T11:13:23.026Z,7.97
2019-05-26T11:15:52.638Z,7.47
2019-05-26T11:18:23.195Z,9.70
2019-05-26T11:20:53.587Z,6.07
2019-05-26T11:23:23.315Z,7.07
2019-05-26T11:25:52.956Z,5.37
2019-05-26T11:28:22.842Z,9.90
2019-05-26T11:30:53.218Z,8.47
2019-05-26T11:33:23.055Z,9.67
2019-05-26T11:35:53.398Z,5.00
2019-05-26T11:38:23.230Z,9.30
2019-05-26T11:40:53.726Z,7.70
2019-05-26T11:43:23.554Z,12.53
2019-05-26T11:45:57.688Z,10.53
2019-05-26T11:48:27.420Z,8.80
2019-05-26T11:50:57.730Z,9.20
2019-05-26T11:53:27.501Z,7.57
2019-05-26T11:55:57.845Z,11.40
2019-05-26T11:58:28.245Z,8.53
2019-05-26T12:00:57.973Z,14.37
2019-05-26T12:03:27.625Z,14.27
2019-05-26T12:05:57.913Z,17.47
2019-05-26T12:08:28.284Z,13.87
2019-05-26T12:10:58.603Z,12.97
2019-05-26T12:13:28.241Z,17.47
2019-05-26T12:15:58.100Z,12.27
2019-05-26T12:18:27.797Z,10.23
2019-05-26T12:20:58.194Z,12.60
2019-05-26T12:23:28.195Z,14.20
2019-05-26T12:25:58.657Z,11.90
2019-05-26T12:28:28.571Z,12.13
2019-05-26T12:30:58.248Z,16.90
2019-05-26T12:33:28.846Z,14.50
2019-05-26T12:35:58.623Z,10.30
2019-05-26T12:38:29.381Z,11.77
2019-05-26T12:40:59.139Z,13.33
2019-05-26T12:43:28.837Z,10.67
2019-05-26T12:45:58.549Z,15.10
2019-05-26T12:48:29.192Z,14.13
2019-05-26T12:50:58.979Z,10.90
2019-05-26T12:53:29.377Z,9.80
2019-05-26T12:55:59.200Z,8.60
2019-05-26T12:58:29.569Z,17.23
2019-05-26T13:00:59.431Z,8.27
2019-05-26T13:03:30.343Z,7.73
2019-05-26T13:06:00.064Z,10.63
2019-05-26T13:08:29.898Z,13.27
2019-05-26T13:11:00.308Z,11.93
2019-05-26T13:13:30.178Z,10.30
2019-05-26T13:15:59.815Z,6.50
2019-05-26T13:18:29.478Z,7.47
2019-05-26T13:20:59.215Z,7.37
2019-05-26T13:23:28.931Z,9.10
2019-05-26T13:25:59.270Z,12.77
2019-05-26T13:28:29.029Z,10.30
2019-05-26T13:30:59.878Z,6.93
2019-05-26T13:33:29.797Z,8.40
2019-05-26T13:36:00.174Z,10.23
2019-05-26T13:38:30.000Z,11.93
2019-05-26T13:41:00.313Z,15.83
2019-05-26T13:43:30.059Z,10.53
2019-05-26T13:45:59.731Z,11.87
2019-05-26T13:48:29.381Z,12.73
2019-05-26T13:50:59.699Z,18.53
2019-05-26T13:53:29.462Z,15.90
2019-05-26T13:55:59.772Z,12.30
2019-05-26T13:58:29.516Z,11.00
2019-05-26T14:00:59.851Z,12.73
2019-05-26T14:03:29.558Z,16.03
2019-05-26T14:06:01.989Z,16.93
2019-05-26T14:08:32.025Z,14.50
2019-05-26T14:11:02.361Z,12.17
2019-05-26T14:13:32.080Z,11.87
2019-05-26T14:16:02.333Z,11.53
2019-05-26T14:18:37.277Z,14.40
2019-05-26T14:21:09.066Z,12.77
2019-05-26T14:23:38.987Z,12.47
2019-05-26T14:26:08.600Z,9.47
2019-05-26T14:28:39.015Z,12.33
2019-05-26T14:31:08.708Z,12.23
2019-05-26T14:33:38.315Z,12.07
2019-05-26T14:36:09.082Z,10.77
2019-05-26T14:38:43.321Z,13.30
2019-05-26T14:41:10.780Z,14.20
2019-05-26T14:43:41.654Z,13.70
2019-05-26T14:46:12.136Z,13.40
2019-05-26T14:48:42.802Z,16.80
2019-05-26T14:51:15.516Z,18.63
2019-05-26T14:53:45.959Z,16.13
2019-05-26T14:56:16.529Z,21.80
2019-05-26T14:58:46.967Z,17.20
2019-05-26T15:01:17.365Z,13.83
2019-05-26T15:03:47.175Z,15.77
2019-05-26T15:06:16.820Z,13.57
2019-05-26T15:08:46.491Z,21.60
2019-05-26T15:11:16.076Z,20.53
2019-05-26T15:13:45.728Z,17.67
2019-05-26T15:16:15.344Z,19.90
2019-05-26T15:18:45.497Z,21.70
2019-05-26T15:21:18.079Z,16.50
2019-05-26T15:23:48.075Z,21.93
2019-05-26T15:26:17.779Z,20.57
2019-05-26T15:28:47.882Z,22.30
2019-05-26T15:31:18.238Z,19.83
2019-05-26T15:33:48.281Z,17.40
2019-05-26T15:36:18.577Z,15.23
2019-05-26T15:38:48.299Z,15.37
2019-05-26T15:41:18.603Z,20.97
2019-05-26T15:43:48.581Z,17.70
2019-05-26T15:46:25.124Z,19.83
2019-05-26T15:48:51.022Z,15.23
2019-05-26T15:51:21.338Z,15.60
2019-05-26T15:53:51.966Z,16.53
2019-05-26T15:56:21.789Z,17.07
2019-05-26T15:58:51.989Z,16.67
2019-05-26T16:01:22.023Z,16.57
2019-05-26T16:03:53.117Z,12.30
2019-05-26T16:06:23.630Z,19.60
2019-05-26T16:08:54.466Z,14.73
2019-05-26T16:11:25.032Z,19.60
2019-05-26T16:13:55.813Z,13.73
2019-05-26T16:16:40.214Z,14.47
2019-05-26T16:18:58.018Z,15.10
2019-05-26T16:21:28.575Z,16.50
2019-05-26T16:23:58.419Z,12.83
2019-05-26T16:26:28.962Z,14.27
2019-05-26T16:28:59.441Z,15.00
2019-05-26T16:31:30.007Z,14.63
2019-05-26T16:33:59.974Z,16.00
2019-05-26T16:36:29.661Z,12.10
2019-05-26T16:38:59.320Z,17.03
2019-05-26T16:41:29.654Z,17.27
2019-05-26T16:43:59.513Z,17.33
2019-05-26T16:46:30.048Z,18.90
2019-05-26T16:48:59.824Z,14.37
2019-05-26T16:51:30.240Z,13.50
2019-05-26T16:54:00.162Z,17.37
2019-05-26T16:56:29.868Z,15.30
2019-05-26T16:58:59.674Z,16.10
2019-05-26T17:01:29.973Z,18.27
2019-05-26T17:04:00.721Z,14.47
2019-05-26T17:06:31.091Z,14.70
2019-05-26T17:09:00.818Z,18.13
2019-05-26T17:11:30.535Z,17.57
2019-05-26T17:14:00.178Z,20.37
2019-05-26T17:16:29.782Z,20.43
2019-05-26T17:18:59.505Z,16.30
2019-05-26T17:21:29.111Z,19.33
2019-05-26T17:23:58.798Z,19.73
2019-05-26T17:26:28.456Z,18.17
2019-05-26T17:28:58.979Z,24.57
2019-05-26T17:31:31.567Z,21.30
2019-05-26T17:34:01.243Z,23.57
2019-05-26T17:36:30.997Z,17.57
2019-05-26T17:39:04.002Z,21.83
2019-05-26T17:41:33.815Z,21.63
2019-05-26T17:44:04.662Z,21.77
2019-05-26T17:46:34.991Z,25.07
2019-05-26T17:49:05.501Z,20.33
2019-05-26T17:51:35.962Z,23.20
2019-05-26T17:54:06.528Z,29.13
2019-05-26T17:56:36.942Z,24.47
2019-05-26T17:59:06.665Z,22.97
2019-05-26T18:01:38.435Z,25.90
2019-05-26T18:04:08.214Z,31.33
2019-05-26T18:06:37.874Z,26.03
2019-05-26T18:09:09.611Z,24.10
2019-05-26T18:11:39.496Z,30.60
2019-05-26T18:14:09.186Z,28.93
2019-05-26T18:16:39.049Z,30.23
2019-05-26T18:19:09.300Z,34.67
2019-05-26T18:21:40.583Z,38.00
2019-05-26T18:24:10.279Z,32.27
2019-05-26T18:26:40.998Z,41.53
2019-05-26T18:29:11.115Z,32.70
2019-05-26T18:31:42.929Z,31.53
2019-05-26T18:34:14.460Z,37.80
2019-05-26T18:36:45.088Z,47.50
2019-05-26T18:39:15.390Z,29.17
2019-05-26T18:41:45.674Z,30.30
2019-05-26T18:44:15.381Z,32.00
2019-05-26T18:46:45.027Z,43.93
2019-05-26T18:49:14.801Z,34.63
2019-05-26T18:51:45.145Z,32.50
2019-05-26T18:54:14.912Z,26.03
2019-05-26T18:56:45.192Z,34.87
2019-05-26T18:59:16.013Z,30.10
2019-05-26T19:01:46.488Z,35.50
2019-05-26T19:04:16.246Z,33.67
2019-05-26T19:06:46.554Z,35.77
2019-05-26T19:09:17.005Z,26.03
2019-05-26T19:11:47.453Z,26.57
2019-05-26T19:14:17.842Z,27.00
2019-05-26T19:16:48.357Z,28.87
2019-05-26T19:19:18.868Z,30.20
2019-05-26T19:21:48.648Z,28.50
2019-05-26T19:24:19.105Z,31.63
2019-05-26T19:26:48.856Z,31.00
2019-05-26T19:29:19.139Z,27.23
2019-05-26T19:31:48.886Z,25.47
2019-05-26T19:34:19.270Z,24.13
2019-05-26T19:36:48.970Z,17.13
2019-05-26T19:39:18.585Z,19.23
2019-05-26T19:41:48.883Z,15.27
2019-05-26T19:44:19.273Z,18.90
2019-05-26T19:46:52.657Z,17.00
2019-05-26T19:49:20.877Z,17.40
2019-05-26T19:51:50.569Z,18.93
2019-05-26T19:54:20.179Z,21.30
2019-05-26T19:56:49.808Z,16.00
2019-05-26T19:59:20.801Z,23.20
2019-05-26T20:01:51.132Z,17.83
2019-05-26T20:04:21.506Z,19.20
2019-05-26T20:06:51.858Z,18.43
2019-05-26T20:09:22.218Z,20.47
2019-05-26T20:11:52.905Z,25.57
2019-05-26T20:14:22.762Z,30.07
2019-05-26T20:16:53.012Z,39.73
2019-05-26T20:19:22.757Z,49.17
2019-05-26T20:21:53.032Z,43.73
2019-05-26T20:24:22.741Z,52.30
2019-05-26T20:26:52.460Z,45.97
2019-05-26T20:29:22.733Z,51.23
2019-05-26T20:31:53.136Z,47.83
2019-05-26T20:34:22.869Z,47.97
2019-05-26T20:36:53.284Z,48.53
2019-05-26T20:39:23.919Z,54.57
2019-05-26T20:41:54.428Z,58.53
2019-05-26T20:44:24.809Z,62.33
2019-05-26T20:46:55.185Z,62.23
2019-05-26T20:49:24.883Z,62.67
2019-05-26T20:51:55.178Z,57.23
2019-05-26T20:54:24.884Z,63.57
2019-05-26T20:56:55.135Z,55.20
2019-05-26T20:59:25.483Z,58.30
2019-05-26T21:01:55.311Z,58.23
2019-05-26T21:04:25.649Z,52.07
2019-05-26T21:06:55.442Z,57.87
2019-05-26T21:09:25.739Z,54.10
2019-05-26T21:11:55.476Z,47.23
2019-05-26T21:14:25.955Z,62.00
2019-05-26T21:16:55.762Z,57.17
2019-05-26T21:19:25.364Z,52.83
2019-05-26T21:21:55.711Z,54.93
2019-05-26T21:24:25.477Z,60.90
2019-05-26T21:26:55.112Z,56.43
2019-05-26T21:29:25.352Z,50.03
2019-05-26T21:31:55.784Z,54.10
2019-05-26T21:34:25.498Z,60.87
2019-05-26T21:36:55.761Z,54.93
2019-05-26T21:39:26.154Z,56.03
2019-05-26T21:41:55.841Z,61.73
2019-05-26T21:44:25.612Z,53.13
2019-05-26T21:46:55.899Z,53.90
2019-05-26T21:49:25.613Z,53.87
2019-05-26T21:51:55.874Z,47.90
2019-05-26T21:54:25.625Z,48.73
2019-05-26T21:56:55.892Z,46.43
2019-05-26T21:59:25.607Z,57.07
2019-05-26T22:01:55.892Z,58.43
2019-05-26T22:04:25.555Z,55.50
2019-05-26T22:06:55.845Z,59.70
2019-05-26T22:09:25.607Z,43.65
2019-05-26T22:11:55.916Z,55.57
2019-05-26T22:14:26.290Z,50.37
2019-05-26T22:16:56.577Z,52.87
2019-05-26T22:19:26.268Z,59.67
2019-05-26T22:21:56.545Z,57.70
2019-05-26T22:24:27.157Z,43.50
2019-05-26T22:26:57.492Z,50.47
2019-05-26T22:29:27.843Z,54.70
2019-05-26T22:31:57.588Z,43.10
2019-05-26T22:34:27.453Z,42.00
2019-05-26T22:36:57.768Z,41.60
2019-05-26T22:39:28.545Z,48.00
2019-05-26T22:41:58.280Z,51.37
2019-05-26T22:44:28.793Z,35.33
2019-05-26T22:46:59.178Z,46.73
2019-05-26T22:49:30.245Z,42.07
2019-05-26T22:52:00.618Z,40.00
2019-05-26T22:54:30.301Z,49.63
2019-05-26T22:57:00.609Z,41.17
2019-05-26T22:59:30.975Z,39.55
2019-05-26T23:02:01.421Z,45.93
2019-05-26T23:04:31.864Z,48.33
2019-05-26T23:07:02.211Z,55.80
2019-05-26T23:09:32.547Z,48.83
2019-05-26T23:12:02.274Z,51.77
2019-05-26T23:14:32.528Z,53.13
2019-05-26T23:17:02.879Z,48.43
2019-05-26T23:19:33.210Z,51.93
2019-05-26T23:22:03.683Z,48.57
2019-05-26T23:24:34.106Z,56.40
2019-05-26T23:27:04.773Z,60.63
2019-05-26T23:29:35.438Z,49.43
2019-05-26T23:32:05.128Z,52.93
2019-05-26T23:34:35.537Z,47.17
2019-05-26T23:37:06.076Z,49.20
2019-05-26T23:39:36.536Z,55.87
2019-05-26T23:42:06.217Z,44.40
2019-05-26T23:44:37.401Z,43.87
2019-05-26T23:47:07.900Z,48.63
2019-05-26T23:49:37.850Z,53.07
2019-05-26T23:52:07.445Z,37.67
2019-05-26T23:54:37.584Z,52.70
2019-05-26T23:57:07.859Z,46.23
2019-05-26T23:59:38.621Z,49.80
